Time;durP1;ratioP1;P1;durP2;ratioP2;P2;SDS_P1;SDS_P2;PMS_P1;PMS_P2;Temp;Humidity;BMP_temperature;BMP_pressure;BME280_temperature;BME280_humidity;BME280_pressure;Samples;Min_cycle;Max_cycle;Signal;HPM_P1;HPM_P2
2022/01/12 00:01:09;;;;;;;;;77.33;58.33;;;;;2.31;76.01;103324.66;5016251;28;47202;-73
2022/01/12 00:03:34;;;;;;;;;79.67;56.67;;;;;2.42;76.27;103337.06;5026293;28;47451;-73
2022/01/12 00:06:01;;;;;;;;;76.67;56.00;;;;;2.40;75.59;103332.47;5017485;28;45145;-73
2022/01/12 00:08:27;;;;;;;;;77.33;59.00;;;;;2.34;75.76;103319.72;5018405;28;45260;-73
2022/01/12 00:10:52;;;;;;;;;72.67;56.00;;;;;2.28;75.52;103306.09;5017677;28;45522;-73
2022/01/12 00:13:18;;;;;;;;;78.00;55.33;;;;;2.44;75.17;103334.63;5014609;28;45236;-73
2022/01/12 00:15:43;;;;;;;;;69.67;53.33;;;;;2.37;75.99;103325.25;5016234;28;45174;-73
2022/01/12 00:18:09;;;;;;;;;75.00;59.33;;;;;2.38;75.30;103329.72;5015010;28;45668;-73
2022/01/12 00:20:34;;;;;;;;;73.33;56.33;;;;;2.34;75.86;103327.56;5018520;28;45426;-73
2022/01/12 00:23:00;;;;;;;;;78.00;59.67;;;;;2.39;76.03;103330.63;5013598;28;46340;-73
2022/01/12 00:25:30;;;;;;;;;72.33;56.33;;;;;2.12;75.95;103272.34;5019220;28;45280;-73
2022/01/12 00:33:23;;;;;;;;;74.00;54.67;;;;;2.42;75.25;103326.63;5017087;28;45372;-73
2022/01/12 00:35:51;;;;;;;;;74.33;58.00;;;;;2.36;75.73;103312.06;5017400;28;45290;-73
2022/01/12 00:38:20;;;;;;;;;74.67;53.00;;;;;2.41;75.48;103327.41;5018290;28;45174;-73
2022/01/12 00:40:52;;;;;;;;;83.00;59.67;;;;;2.48;76.18;103344.56;5015780;28;46196;-73
2022/01/12 00:43:19;;;;;;;;;69.67;50.33;;;;;2.50;74.95;103350.88;5025694;28;47536;-73
2022/01/12 00:45:48;;;;;;;;;70.33;56.00;;;;;2.41;75.16;103332.63;5017311;28;45526;-73
2022/01/12 00:48:15;;;;;;;;;74.00;55.33;;;;;2.53;75.12;103364.22;5012455;28;45300;-73
2022/01/12 00:50:41;;;;;;;;;74.67;58.33;;;;;2.40;75.63;103343.81;5017673;28;45155;-73
2022/01/12 00:53:08;;;;;;;;;76.00;56.67;;;;;2.38;75.52;103344.44;5014778;28;46181;-73
2022/01/12 00:55:35;;;;;;;;;68.67;50.00;;;;;2.53;75.42;103382.50;5018316;28;45308;-73
2022/01/12 00:58:01;;;;;;;;;70.00;52.33;;;;;2.46;75.08;103378.38;5019033;28;45471;-73
2022/01/12 01:00:27;;;;;;;;;82.00;54.67;;;;;2.51;75.47;103384.03;5022368;28;45368;-73
2022/01/12 01:02:54;;;;;;;;;68.33;53.67;;;;;2.44;75.41;103374.69;5009235;28;47422;-73
2022/01/12 01:05:22;;;;;;;;;75.00;56.00;;;;;2.51;75.54;103399.69;5021105;28;45332;-73
2022/01/12 01:07:49;;;;;;;;;78.00;57.33;;;;;2.36;75.11;103375.63;5020056;28;45273;-73
2022/01/12 01:10:18;;;;;;;;;72.67;56.00;;;;;2.46;75.54;103407.09;5011605;28;45214;-73
2022/01/12 01:12:45;;;;;;;;;70.00;55.00;;;;;2.43;75.47;103392.78;5014481;28;45538;-73
2022/01/12 01:15:15;;;;;;;;;76.00;57.00;;;;;2.29;75.30;103372.25;5020971;28;45329;-73
2022/01/12 01:25:38;;;;;;;;;82.33;57.67;;;;;2.41;75.28;103430.91;5020627;28;45602;-73
2022/01/12 01:28:05;;;;;;;;;79.00;54.33;;;;;2.27;75.38;103416.47;5016493;28;45307;-73
2022/01/12 01:30:31;;;;;;;;;76.00;57.67;;;;;2.36;75.42;103432.13;5021527;28;45303;-73
2022/01/12 01:33:04;;;;;;;;;77.67;58.00;;;;;2.32;75.58;103422.13;5032522;28;48127;-74
2022/01/12 01:35:31;;;;;;;;;80.33;61.00;;;;;2.29;75.83;103421.81;5020210;28;45601;-74
2022/01/12 01:38:02;;;;;;;;;83.67;60.33;;;;;2.26;76.08;103416.31;5020127;28;45407;-73
2022/01/12 01:40:29;;;;;;;;;76.00;60.00;;;;;2.22;75.27;103423.84;5021753;28;45310;-73
2022/01/12 01:53:38;;;;;;;;;79.00;56.00;;;;;2.06;76.30;103410.00;5018746;28;45234;-73
2022/01/12 01:56:04;;;;;;;;;80.67;60.00;;;;;2.19;76.13;103431.34;5018980;28;45255;-73
2022/01/12 01:58:30;;;;;;;;;76.67;55.33;;;;;2.18;75.98;103432.09;5019891;28;45257;-73
2022/01/12 02:00:55;;;;;;;;;77.00;61.67;;;;;2.09;75.95;103409.41;5019593;28;45294;-73
2022/01/12 02:03:23;;;;;;;;;80.33;62.00;;;;;2.03;75.86;103399.25;5019641;28;46484;-73
2022/01/12 02:05:49;;;;;;;;;76.00;57.33;;;;;2.10;76.17;103409.56;5019604;28;45350;-73
2022/01/12 02:08:14;;;;;;;;;73.33;53.00;;;;;2.13;75.79;103429.78;5011824;28;45348;-73
2022/01/12 02:10:39;;;;;;;;;76.33;54.33;;;;;2.13;75.91;103449.00;5019994;28;45413;-73
2022/01/12 02:13:05;;;;;;;;;73.33;53.67;;;;;2.11;75.81;103450.53;5013259;28;45402;-73
2022/01/12 02:15:30;;;;;;;;;78.00;57.67;;;;;1.97;76.42;103424.75;5019685;28;45290;-73
2022/01/12 02:18:14;;;;;;;;;83.67;58.33;;;;;2.07;76.19;103440.53;5031530;28;45262;-73
2022/01/12 02:40:18;;;;;;;;;71.33;53.33;;;;;1.98;76.43;103390.97;5017832;28;45286;-73
2022/01/12 02:42:48;;;;;;;;;79.00;59.67;;;;;2.08;76.18;103391.91;5013348;28;45384;-73
2022/01/12 02:50:46;;;;;;;;;72.33;54.33;;;;;1.85;76.43;103356.63;5019434;28;45313;-73
2022/01/12 02:55:58;;;;;;;;;70.33;49.00;;;;;1.83;76.13;103376.41;5018706;28;45363;-73
2022/01/12 02:58:24;;;;;;;;;72.00;55.00;;;;;1.84;76.32;103386.06;5018525;28;45377;-73
2022/01/12 03:03:41;;;;;;;;;74.67;58.67;;;;;1.75;76.75;103403.38;5011964;28;45316;-73
2022/01/12 03:06:08;;;;;;;;;76.67;54.67;;;;;1.79;77.43;103408.13;5018153;28;48249;-73
2022/01/12 03:08:37;;;;;;;;;72.33;57.67;;;;;1.64;76.88;103389.25;5012809;28;45342;-73
2022/01/12 03:11:08;;;;;;;;;70.67;56.33;;;;;1.78;76.37;103427.16;5018668;28;45364;-73
2022/01/12 03:13:35;;;;;;;;;78.33;56.00;;;;;1.85;76.40;103440.06;5018881;28;46316;-73
2022/01/12 03:16:02;;;;;;;;;80.67;56.33;;;;;1.85;77.08;103424.44;5016294;28;47377;-73
2022/01/12 03:18:28;;;;;;;;;74.00;57.00;;;;;1.82;76.66;103415.34;5015997;28;45339;-73
2022/01/12 03:20:53;;;;;;;;;73.00;56.33;;;;;1.97;76.45;103429.97;5016637;28;45478;-73
2022/01/12 03:23:19;;;;;;;;;76.67;54.67;;;;;1.84;76.29;103403.38;5015589;28;45534;-73
2022/01/12 03:25:44;;;;;;;;;68.00;55.67;;;;;1.87;76.35;103411.53;5018154;28;45318;-73
2022/01/12 03:28:10;;;;;;;;;78.00;56.67;;;;;1.77;77.23;103388.81;5014951;28;45380;-73
2022/01/12 03:30:47;;;;;;;;;75.33;56.33;;;;;1.97;76.76;103419.53;5019537;28;45214;-73
2022/01/12 03:33:31;;;;;;;;;74.67;54.33;;;;;1.75;76.81;103382.53;5015570;28;45288;-73
2022/01/12 03:38:40;;;;;;;;;79.67;57.67;;;;;1.97;76.71;103419.53;5016911;28;44618;-73
2022/01/12 03:41:06;;;;;;;;;76.33;57.67;;;;;1.78;76.51;103396.78;5017545;28;45221;-73
2022/01/12 03:43:31;;;;;;;;;70.33;54.00;;;;;1.93;75.97;103417.34;5011999;28;45667;-73
2022/01/12 03:45:58;;;;;;;;;79.00;57.00;;;;;1.76;76.93;103386.97;5010105;28;45350;-73
2022/01/12 03:48:23;;;;;;;;;69.67;55.00;;;;;1.85;76.06;103407.81;5015826;28;45270;-73
2022/01/12 03:50:49;;;;;;;;;78.33;58.67;;;;;1.75;76.26;103409.50;5018167;28;45320;-73
2022/01/12 03:53:15;;;;;;;;;66.67;51.67;;;;;1.70;76.23;103407.19;5015049;28;45315;-73
2022/01/12 03:55:44;;;;;;;;;76.67;57.00;;;;;1.86;76.33;103446.19;5017024;28;47429;-73
2022/01/12 03:58:12;;;;;;;;;77.00;56.00;;;;;1.79;76.05;103436.81;5016917;28;45291;-73
2022/01/12 04:00:37;;;;;;;;;77.33;51.67;;;;;1.81;77.42;103421.34;5019092;28;45285;-72
2022/01/12 04:03:05;;;;;;;;;75.33;55.67;;;;;1.96;76.43;103446.34;5016543;28;46000;-73
2022/01/12 04:08:20;;;;;;;;;69.00;54.00;;;;;2.01;76.47;103476.44;5010387;28;45388;-73
2022/01/12 04:10:53;;;;;;;;;79.67;58.67;;;;;2.03;77.08;103474.00;5016378;28;45360;-73
2022/01/12 04:13:22;;;;;;;;;76.00;56.00;;;;;1.88;76.65;103450.81;5006854;28;45452;-73
2022/01/12 04:15:56;;;;;;;;;69.67;56.33;;;;;1.89;76.22;103464.78;5013166;28;45535;-73
2022/01/12 04:18:22;;;;;;;;;71.33;53.67;;;;;1.96;76.75;103489.03;5012960;28;45170;-73
2022/01/12 04:20:49;;;;;;;;;74.00;56.33;;;;;2.03;76.19;103501.00;5017489;28;45340;-73
2022/01/12 04:23:17;;;;;;;;;89.33;64.00;;;;;1.93;76.67;103493.94;5014870;28;45478;-73
2022/01/12 04:25:57;;;;;;;;;79.33;57.00;;;;;1.94;76.09;103502.69;5030566;28;48026;-72
2022/01/12 04:28:26;;;;;;;;;74.33;55.00;;;;;1.86;76.50;103491.44;5030444;28;46026;-72
2022/01/12 04:30:53;;;;;;;;;81.33;59.67;;;;;1.88;77.10;103496.84;5017328;28;45285;-73
2022/01/12 04:33:19;;;;;;;;;78.33;57.33;;;;;1.91;76.34;103503.28;5017913;28;45497;-72
2022/01/12 04:35:49;;;;;;;;;82.00;55.00;;;;;1.92;76.83;103509.41;5019789;28;48226;-72
2022/01/12 04:38:16;;;;;;;;;76.00;56.00;;;;;1.87;76.44;103502.81;5017999;28;45897;-72
2022/01/12 04:40:43;;;;;;;;;76.33;55.00;;;;;1.89;76.45;103509.09;5021497;28;45327;-72
2022/01/12 04:43:09;;;;;;;;;91.33;62.67;;;;;1.88;76.71;103507.28;5015659;28;45624;-72
2022/01/12 04:46:29;;;;;;;;;78.00;57.00;;;;;1.92;76.75;103501.59;5020575;28;48443;-72
2022/01/12 04:50:54;;;;;;;;;70.67;53.33;;;;;1.83;76.91;103506.78;5020845;28;45467;-72
2022/01/12 04:53:20;;;;;;;;;73.00;56.33;;;;;1.96;76.67;103522.00;5020796;28;45447;-72
2022/01/12 04:55:47;;;;;;;;;71.00;53.33;;;;;1.89;76.37;103515.22;5020501;28;45320;-72
2022/01/12 04:58:17;;;;;;;;;83.67;57.00;;;;;1.81;76.80;103491.75;5012034;28;45475;-72
2022/01/12 05:00:44;;;;;;;;;78.67;53.00;;;;;1.97;76.64;103521.25;5021572;28;45328;-74
2022/01/12 05:13:53;;;;;;;;;61.67;48.00;;;;;2.00;76.26;103537.22;5016882;28;45285;-72
2022/01/12 05:16:19;;;;;;;;;81.00;53.67;;;;;1.81;76.54;103497.88;5018256;28;45193;-72
2022/01/12 05:18:47;;;;;;;;;79.33;57.67;;;;;1.85;75.98;103509.53;5020031;28;44635;-72
2022/01/12 05:21:14;;;;;;;;;75.00;59.00;;;;;1.91;75.93;103518.94;5014130;28;45508;-72
2022/01/12 05:23:40;;;;;;;;;68.00;52.33;;;;;1.95;75.82;103518.47;5020613;28;46907;-72
2022/01/12 05:26:06;;;;;;;;;84.33;64.00;;;;;1.91;76.52;103513.72;5019827;28;46834;-73
2022/01/12 05:28:32;;;;;;;;;71.33;53.67;;;;;1.79;75.98;103494.19;5017377;28;45343;-73
2022/01/12 05:30:58;;;;;;;;;68.00;51.00;;;;;1.74;76.36;103487.59;5017597;28;45339;-72
2022/01/12 05:33:25;;;;;;;;;68.00;51.33;;;;;1.87;76.88;103503.72;5034824;28;46014;-72
2022/01/12 05:35:52;;;;;;;;;72.33;54.67;;;;;1.90;76.19;103503.13;5018044;28;45533;-72
2022/01/12 05:38:17;;;;;;;;;71.67;54.33;;;;;1.95;76.31;103513.25;5004264;28;45495;-73
2022/01/12 05:40:46;;;;;;;;;67.33;50.67;;;;;1.89;76.19;103509.09;5020835;28;44655;-71
2022/01/12 05:43:13;;;;;;;;;68.33;48.33;;;;;1.94;76.04;103508.81;5028196;28;45968;-71
2022/01/12 05:45:40;;;;;;;;;68.67;53.00;;;;;1.77;76.17;103482.69;5019769;28;47215;-72
2022/01/12 05:50:35;;;;;;;;;75.67;53.00;;;;;1.92;75.87;103507.72;5021601;28;45467;-72
2022/01/12 05:53:01;;;;;;;;;78.00;51.00;;;;;1.85;76.29;103494.84;5016830;28;45228;-72
2022/01/12 05:55:26;;;;;;;;;71.33;49.00;;;;;1.96;76.22;103522.00;5020325;28;46282;-71
2022/01/12 05:57:52;;;;;;;;;73.00;55.67;;;;;1.92;76.33;103520.75;5018038;28;45175;-72
2022/01/12 06:00:20;;;;;;;;;60.67;46.33;;;;;1.84;76.05;103499.88;5021804;28;45675;-72
2022/01/12 06:02:45;;;;;;;;;68.00;53.00;;;;;1.97;76.40;103529.06;5010958;28;45467;-72
2022/01/12 06:05:14;;;;;;;;;68.00;51.00;;;;;1.92;76.61;103515.56;5021517;28;45584;-72
2022/01/12 06:07:40;;;;;;;;;61.00;46.00;;;;;1.96;76.07;103528.16;5012170;28;45515;-72
2022/01/12 06:10:06;;;;;;;;;68.33;52.00;;;;;1.83;76.78;103508.47;5010179;28;45320;-72
2022/01/12 06:12:31;;;;;;;;;68.33;48.67;;;;;1.67;76.16;103477.28;5015583;28;45471;-72
2022/01/12 06:14:56;;;;;;;;;71.67;51.33;;;;;1.78;76.55;103492.34;5021057;28;46691;-73
2022/01/12 06:17:22;;;;;;;;;70.00;53.33;;;;;1.58;76.44;103459.00;5010267;28;45305;-73
2022/01/12 06:19:48;;;;;;;;;68.33;49.33;;;;;1.84;76.60;103489.44;5021440;28;45165;-71
2022/01/12 06:22:13;;;;;;;;;73.67;53.67;;;;;1.79;76.44;103473.31;5016201;28;45571;-72
2022/01/12 06:24:39;;;;;;;;;80.00;59.00;;;;;1.92;76.13;103504.19;5017877;28;46436;-72
2022/01/12 06:27:05;;;;;;;;;73.33;56.33;;;;;1.94;76.14;103510.50;5010205;28;45251;-72
2022/01/12 06:32:09;;;;;;;;;71.67;56.33;;;;;1.84;76.53;103507.69;5014493;28;45381;-71
2022/01/12 06:34:34;;;;;;;;;81.00;60.00;;;;;1.82;76.74;103504.97;5019322;28;46361;-71
2022/01/12 06:37:00;;;;;;;;;78.67;59.33;;;;;1.78;77.05;103510.59;5017935;28;45490;-71
2022/01/12 06:39:26;;;;;;;;;71.33;53.33;;;;;1.82;76.55;103518.00;5018931;28;45390;-71
2022/01/12 06:41:54;;;;;;;;;72.00;52.33;;;;;1.82;76.17;103540.50;5015766;28;45430;-71
2022/01/12 06:44:20;;;;;;;;;78.00;55.33;;;;;1.77;76.90;103538.38;5019021;28;45344;-72
2022/01/12 06:46:51;;;;;;;;;70.67;49.67;;;;;1.65;77.20;103512.69;5016075;28;45578;-72
2022/01/12 06:49:17;;;;;;;;;63.00;44.33;;;;;1.83;76.73;103532.88;5017384;28;44700;-72
2022/01/12 06:51:44;;;;;;;;;70.00;52.67;;;;;1.79;76.19;103522.88;5017176;28;46334;-72
2022/01/12 06:54:10;;;;;;;;;109.00;86.67;;;;;1.64;76.79;103487.41;5017980;28;45385;-72
2022/01/12 06:56:35;;;;;;;;;71.33;53.00;;;;;1.83;76.99;103526.72;5016059;28;45280;-71
2022/01/12 06:59:02;;;;;;;;;73.33;53.33;;;;;1.86;76.91;103537.47;5018497;28;45333;-72
2022/01/12 07:01:28;;;;;;;;;76.00;57.00;;;;;1.66;76.75;103486.78;5017528;28;45432;-71
2022/01/12 07:03:53;;;;;;;;;87.67;60.00;;;;;1.91;76.53;103545.00;5018270;28;46793;-71
2022/01/12 07:06:18;;;;;;;;;72.67;55.67;;;;;1.73;76.64;103510.09;5015990;28;45486;-71
2022/01/12 07:08:44;;;;;;;;;78.00;58.67;;;;;1.92;76.67;103531.19;5017263;28;45462;-71
2022/01/12 07:11:10;;;;;;;;;73.00;55.00;;;;;1.94;76.67;103524.47;5016717;28;45399;-71
2022/01/12 07:13:35;;;;;;;;;85.67;56.33;;;;;1.86;76.55;103501.88;5013711;28;47108;-71
2022/01/12 07:16:00;;;;;;;;;105.33;78.33;;;;;1.96;76.54;103517.72;5017681;28;44720;-71
2022/01/12 07:18:28;;;;;;;;;72.00;54.33;;;;;2.05;76.34;103516.81;5014600;28;45289;-71
2022/01/12 07:20:53;;;;;;;;;79.33;59.33;;;;;2.06;76.45;103516.97;5017516;28;47046;-70
2022/01/12 07:23:19;;;;;;;;;75.33;58.00;;;;;1.98;76.74;103517.88;5014293;28;46291;-71
2022/01/12 07:25:44;;;;;;;;;77.33;57.33;;;;;1.90;76.35;103492.69;5017756;28;45435;-71
2022/01/12 07:28:09;;;;;;;;;77.00;59.67;;;;;2.07;76.98;103533.53;5029197;28;45431;-72
2022/01/12 07:30:35;;;;;;;;;76.33;52.33;;;;;1.98;77.35;103544.88;5018708;28;45364;-71
2022/01/12 07:33:00;;;;;;;;;77.00;56.33;;;;;1.71;77.28;103503.84;5013728;28;45450;-72
2022/01/12 07:35:26;;;;;;;;;74.33;55.00;;;;;1.74;78.37;103525.00;5019208;28;45473;-73
2022/01/12 07:37:52;;;;;;;;;84.67;60.00;;;;;1.77;77.04;103514.91;5014719;28;45576;-72
2022/01/12 07:40:18;;;;;;;;;70.67;55.67;;;;;2.01;76.66;103558.22;5017483;28;46216;-73
2022/01/12 07:42:44;;;;;;;;;82.67;60.00;;;;;1.98;77.09;103567.44;5012702;28;45468;-72
2022/01/12 07:45:10;;;;;;;;;80.33;60.33;;;;;2.01;76.54;103554.69;5017779;28;45221;-72
2022/01/12 07:47:35;;;;;;;;;71.67;54.00;;;;;1.89;77.38;103533.50;5013919;28;45473;-72
2022/01/12 07:50:04;;;;;;;;;76.00;58.00;;;;;2.09;77.11;103577.28;5017230;28;45546;-72
2022/01/12 07:52:30;;;;;;;;;75.33;57.00;;;;;1.91;76.74;103538.88;5012893;28;46511;-71
2022/01/12 07:54:57;;;;;;;;;97.33;77.00;;;;;2.09;76.00;103571.16;5018044;28;45404;-73
2022/01/12 07:57:22;;;;;;;;;72.00;54.33;;;;;2.15;76.58;103587.44;5011708;28;45466;-72
2022/01/12 07:59:48;;;;;;;;;75.00;58.67;;;;;2.15;76.54;103585.75;5031325;28;47477;-72
2022/01/12 08:02:13;;;;;;;;;71.33;55.67;;;;;2.08;76.54;103574.53;5012826;28;45459;-73
2022/01/12 08:04:39;;;;;;;;;74.33;51.67;;;;;2.11;76.53;103593.09;5016210;28;45298;-73
2022/01/12 08:07:06;;;;;;;;;71.33;55.67;;;;;2.07;76.72;103584.03;5015114;28;45032;-73
2022/01/12 08:09:32;;;;;;;;;76.00;54.00;;;;;2.19;76.94;103610.47;5000706;28;46340;-73
2022/01/12 08:11:57;;;;;;;;;76.00;55.33;;;;;2.16;76.35;103592.81;5013300;28;45441;-73
2022/01/12 08:14:22;;;;;;;;;75.00;54.00;;;;;2.23;76.42;103612.63;5018898;28;45221;-73
2022/01/12 08:16:48;;;;;;;;;68.33;51.00;;;;;2.28;76.46;103618.34;5014509;28;45830;-73
2022/01/12 08:19:19;;;;;;;;;66.33;52.00;;;;;2.12;76.66;103588.03;5015800;28;45363;-73
2022/01/12 08:21:44;;;;;;;;;69.33;52.33;;;;;2.27;76.30;103626.91;5014627;28;47653;-74
2022/01/12 08:24:11;;;;;;;;;72.33;54.00;;;;;2.32;76.59;103633.53;5019082;28;45394;-73
2022/01/12 08:26:37;;;;;;;;;72.33;54.33;;;;;2.39;75.85;103646.47;5012814;28;45376;-73
2022/01/12 08:29:02;;;;;;;;;76.00;57.00;;;;;2.34;76.55;103640.75;5018560;28;45560;-72
2022/01/12 08:31:28;;;;;;;;;75.00;53.67;;;;;2.37;76.39;103647.97;5014289;28;45579;-72
2022/01/12 08:33:53;;;;;;;;;72.00;54.67;;;;;2.23;76.60;103628.28;5032275;28;45426;-73
2022/01/12 08:36:18;;;;;;;;;74.67;57.00;;;;;2.28;76.05;103637.53;5015498;28;45376;-73
2022/01/12 08:38:44;;;;;;;;;65.00;48.00;;;;;2.44;76.66;103660.91;5015097;28;45435;-72
2022/01/12 08:41:09;;;;;;;;;77.00;59.33;;;;;2.38;76.56;103649.81;5016408;28;45695;-73
2022/01/12 08:43:35;;;;;;;;;75.33;52.00;;;;;2.40;76.61;103641.38;5029162;28;45258;-72
2022/01/12 08:46:00;;;;;;;;;75.33;56.67;;;;;2.43;76.29;103649.53;5017425;28;45453;-72
2022/01/12 08:48:25;;;;;;;;;74.33;49.67;;;;;2.52;76.49;103656.47;5030593;28;46189;-72
2022/01/12 08:50:51;;;;;;;;;70.00;49.00;;;;;2.34;76.29;103627.72;5007569;28;47174;-72
2022/01/12 08:53:17;;;;;;;;;61.33;48.00;;;;;2.29;76.62;103628.00;5017196;28;45543;-72
2022/01/12 08:55:42;;;;;;;;;67.67;51.33;;;;;2.32;76.47;103639.66;5018431;28;45462;-72
2022/01/12 08:58:08;;;;;;;;;76.67;53.33;;;;;2.41;76.44;103648.47;5009003;28;45606;-72
2022/01/12 09:00:33;;;;;;;;;68.00;51.00;;;;;2.51;76.15;103649.41;5018761;28;45288;-72
2022/01/12 09:02:59;;;;;;;;;79.67;55.67;;;;;2.58;75.92;103649.28;5009653;28;45355;-72
2022/01/12 09:05:24;;;;;;;;;71.67;52.00;;;;;2.55;75.89;103639.44;5018717;28;45330;-72
2022/01/12 09:07:52;;;;;;;;;60.00;47.67;;;;;2.67;76.15;103663.28;5012784;28;45487;-71
2022/01/12 09:10:17;;;;;;;;;64.67;48.00;;;;;2.61;75.85;103655.72;5018213;28;45162;-72
2022/01/12 09:12:42;;;;;;;;;79.00;58.67;;;;;2.59;75.51;103653.72;5026532;28;45183;-71
2022/01/12 09:15:10;;;;;;;;;67.67;50.33;;;;;2.67;76.02;103672.03;5017915;28;45475;-72
2022/01/12 09:17:36;;;;;;;;;77.33;54.00;;;;;2.74;76.16;103690.94;5013144;28;45462;-72
2022/01/12 09:20:04;;;;;;;;;75.33;56.00;;;;;2.78;75.73;103701.84;5020693;28;45438;-72
2022/01/12 09:22:29;;;;;;;;;75.00;57.00;;;;;2.76;75.61;103711.22;5013579;28;45345;-72
2022/01/12 09:24:55;;;;;;;;;69.33;55.33;;;;;2.74;75.76;103715.34;5020879;28;45262;-72
2022/01/12 09:27:20;;;;;;;;;70.67;54.33;;;;;2.74;75.85;103709.22;5019923;28;47160;-72
2022/01/12 09:29:46;;;;;;;;;62.67;49.00;;;;;2.87;75.55;103733.22;5018516;28;45531;-72
2022/01/12 09:32:12;;;;;;;;;66.67;48.67;;;;;2.89;75.36;103727.38;5015312;28;45330;-74
2022/01/12 09:34:38;;;;;;;;;65.33;48.67;;;;;2.89;75.53;103722.16;5020850;28;45361;-71
2022/01/12 09:37:04;;;;;;;;;71.00;53.00;;;;;2.88;75.10;103729.81;5016227;28;45392;-71
2022/01/12 09:39:29;;;;;;;;;69.67;52.33;;;;;2.92;75.36;103729.41;5018051;28;45289;-71
2022/01/12 09:41:56;;;;;;;;;68.67;48.67;;;;;2.97;74.95;103729.84;5017066;28;45316;-71
2022/01/12 09:44:28;;;;;;;;;64.67;46.00;;;;;2.96;74.89;103734.16;5019144;28;45643;-71
2022/01/12 09:46:54;;;;;;;;;71.33;53.67;;;;;3.02;74.62;103733.84;5018128;28;45384;-71
2022/01/12 09:49:19;;;;;;;;;64.33;51.00;;;;;3.14;75.03;103749.09;5020150;28;45718;-71
2022/01/12 09:51:45;;;;;;;;;73.67;53.67;;;;;3.13;74.51;103739.41;5019403;28;45411;-73
2022/01/12 09:54:12;;;;;;;;;67.33;52.00;;;;;3.17;74.43;103739.75;5021338;28;45227;-70
2022/01/12 09:56:38;;;;;;;;;73.00;50.33;;;;;3.29;74.59;103744.50;5019564;28;45323;-71
2022/01/12 09:59:04;;;;;;;;;80.67;57.00;;;;;3.20;74.10;103720.06;5013066;28;46491;-71
2022/01/12 10:01:31;;;;;;;;;64.67;50.67;;;;;3.45;74.29;103744.38;5019473;28;45439;-72
2022/01/12 10:04:07;;;;;;;;;67.67;52.00;;;;;3.54;74.62;103753.13;5014110;28;45405;-72
2022/01/12 10:06:41;;;;;;;;;68.67;52.33;;;;;3.59;74.73;103746.66;5015984;28;47028;-71
2022/01/12 10:09:07;;;;;;;;;67.25;49.75;;;;;3.58;74.15;103743.88;5029771;28;47439;-76
2022/01/12 10:11:33;;;;;;;;;71.00;53.33;;;;;3.60;73.40;103737.13;5018598;28;45187;-73
2022/01/12 10:14:00;;;;;;;;;72.67;53.00;;;;;3.74;73.81;103757.72;5016912;28;45330;-70
2022/01/12 10:16:26;;;;;;;;;73.00;52.75;;;;;3.81;73.90;103759.28;5013374;28;44833;-71
2022/01/12 10:18:55;;;;;;;;;66.00;52.00;;;;;3.94;73.54;103761.41;5018457;28;46884;-73
2022/01/12 10:21:30;;;;;;;;;66.67;52.00;;;;;3.92;72.82;103739.38;5016856;28;45528;-72
2022/01/12 10:24:07;;;;;;;;;66.00;50.50;;;;;4.08;73.13;103757.53;5015873;28;46063;-72
2022/01/12 10:26:39;;;;;;;;;67.25;51.25;;;;;4.04;73.24;103732.75;5017544;28;46450;-73
2022/01/12 10:29:09;;;;;;;;;66.50;53.50;;;;;4.16;72.64;103747.03;5017352;28;45458;-72
2022/01/12 10:31:54;;;;;;;;;65.00;49.00;;;;;4.31;73.60;103757.16;5015140;28;45336;-72
2022/01/12 10:34:23;;;;;;;;;68.50;52.75;;;;;4.26;72.70;103735.78;5013596;28;45391;-72
2022/01/12 10:36:50;;;;;;;;;63.75;48.00;;;;;4.36;73.46;103748.03;5014952;28;45510;-72
2022/01/12 10:39:17;;;;;;;;;66.25;49.75;;;;;4.38;72.25;103742.19;5016764;28;45633;-72
2022/01/12 10:42:00;;;;;;;;;68.00;53.25;;;;;4.55;72.90;103753.38;5015775;28;45691;-73
2022/01/12 10:44:32;;;;;;;;;69.00;52.75;;;;;4.57;72.46;103751.84;5017780;28;45356;-73
2022/01/12 10:47:16;;;;;;;;;68.50;50.75;;;;;4.42;72.74;103725.97;5017140;28;45456;-72
2022/01/12 10:49:56;;;;;;;;;64.50;49.50;;;;;4.46;71.97;103730.75;5018620;28;46656;-72
2022/01/12 10:52:23;;;;;;;;;66.00;52.00;;;;;4.64;72.04;103743.75;5012746;28;45297;-72
2022/01/12 10:54:50;;;;;;;;;67.25;50.50;;;;;4.65;72.02;103743.94;5020028;28;45258;-72
2022/01/12 10:57:21;;;;;;;;;72.50;50.50;;;;;4.70;70.86;103745.28;5016133;28;45355;-72
2022/01/12 11:00:04;;;;;;;;;73.00;57.00;;;;;4.76;71.84;103744.97;5019864;28;45397;-72
2022/01/12 11:02:30;;;;;;;;;71.50;54.75;;;;;4.87;71.28;103751.19;5010466;28;45902;-72
2022/01/12 11:04:57;;;;;;;;;70.00;55.25;;;;;4.92;72.42;103747.31;5018778;28;45312;-72
2022/01/12 11:07:25;;;;;;;;;88.00;67.00;;;;;4.91;72.38;103741.16;5014061;28;45381;-72
2022/01/12 11:09:55;;;;;;;;;67.50;54.25;;;;;4.99;71.84;103748.84;4991052;28;45404;-72
2022/01/12 11:12:20;;;;;;;;;65.00;49.75;;;;;4.97;70.49;103739.91;4977922;28;45472;-72
2022/01/12 11:14:46;;;;;;;;;70.50;52.75;;;;;5.14;71.42;103761.66;4980609;28;45249;-72
2022/01/12 11:17:11;;;;;;;;;72.50;53.75;;;;;5.16;71.82;103751.34;4974907;28;45475;-72
2022/01/12 11:19:40;;;;;;;;;91.33;69.33;;;;;5.19;70.50;103751.63;4981074;28;46264;-72
2022/01/12 11:22:27;;;;;;;;;67.50;55.50;;;;;5.26;70.75;103758.34;4974927;28;45301;-73
2022/01/12 11:24:54;;;;;;;;;71.25;54.25;;;;;5.16;68.79;103743.47;4967875;28;45474;-73
2022/01/12 11:27:22;;;;;;;;;71.50;54.50;;;;;5.22;69.77;103759.78;4970318;28;45544;-73
2022/01/12 11:29:48;;;;;;;;;70.50;51.75;;;;;5.08;70.47;103729.63;4981110;28;47401;-72
2022/01/12 11:32:21;;;;;;;;;66.75;51.75;;;;;5.05;70.44;103721.47;4973956;28;45341;-72
2022/01/12 11:35:01;;;;;;;;;66.75;53.50;;;;;5.30;71.83;103758.78;4979286;28;45334;-72
2022/01/12 11:37:27;;;;;;;;;67.50;52.25;;;;;5.25;70.84;103739.06;4971620;28;45368;-72
2022/01/12 11:39:53;;;;;;;;;67.25;50.75;;;;;5.21;70.68;103722.91;4980028;28;46250;-72
2022/01/12 11:42:18;;;;;;;;;61.50;49.25;;;;;5.22;68.85;103724.75;4973288;28;45465;-72
2022/01/12 11:44:44;;;;;;;;;70.25;54.00;;;;;5.30;70.18;103735.19;4979914;28;45690;-72
2022/01/12 11:47:20;;;;;;;;;68.25;50.75;;;;;5.32;70.91;103731.00;4974254;28;45494;-72
2022/01/12 11:49:47;;;;;;;;;66.50;53.00;;;;;5.37;69.52;103732.34;4975690;28;45565;-72
2022/01/12 11:52:17;;;;;;;;;62.50;49.25;;;;;5.44;69.61;103725.97;4974869;28;45330;-72
2022/01/12 11:54:45;;;;;;;;;68.25;48.75;;;;;5.41;70.00;103709.03;4976685;28;45392;-72
2022/01/12 11:57:18;;;;;;;;;66.00;49.75;;;;;5.40;69.01;103713.34;4974063;28;45606;-72
2022/01/12 12:00:10;;;;;;;;;65.50;53.00;;;;;5.48;69.49;103722.84;4974958;28;45755;-72
2022/01/12 12:02:38;;;;;;;;;69.50;53.50;;;;;5.50;69.19;103726.53;4973702;28;45495;-72
2022/01/12 12:05:12;;;;;;;;;64.75;50.75;;;;;5.13;70.43;103654.97;4977436;28;45472;-72
2022/01/12 12:07:50;;;;;;;;;67.50;49.50;;;;;5.50;69.21;103718.66;4976617;28;45469;-72
2022/01/12 12:10:22;;;;;;;;;71.25;53.50;;;;;5.53;67.69;103721.56;4978974;28;45512;-72
2022/01/12 12:12:49;;;;;;;;;58.00;48.75;;;;;5.56;68.97;103721.84;4976660;28;46042;-72
2022/01/12 12:15:15;;;;;;;;;70.50;50.25;;;;;5.61;70.30;103724.91;4980269;28;45341;-71
2022/01/12 12:17:41;;;;;;;;;65.00;51.00;;;;;5.58;69.70;103719.38;4971575;28;45425;-72
2022/01/12 12:20:11;;;;;;;;;69.25;53.00;;;;;5.48;69.65;103700.94;4978370;28;47692;-71
2022/01/12 12:22:40;;;;;;;;;68.75;56.25;;;;;5.59;67.92;103705.47;4973166;28;45353;-71
2022/01/12 12:25:23;;;;;;;;;71.50;56.50;;;;;5.52;68.96;103695.19;4979609;28;45417;-70
2022/01/12 12:27:55;;;;;;;;;64.00;52.25;;;;;5.55;69.78;103706.88;4973142;28;45447;-70
2022/01/12 12:30:22;;;;;;;;;64.50;53.25;;;;;5.56;69.09;103702.56;4978273;28;48417;-72
2022/01/12 12:32:52;;;;;;;;;67.25;53.50;;;;;5.42;68.16;103664.56;4973815;28;45275;-71
2022/01/12 12:35:29;;;;;;;;;65.00;52.75;;;;;5.54;67.79;103668.28;4980600;28;45230;-72
2022/01/12 12:37:58;;;;;;;;;72.50;55.50;;;;;5.69;67.19;103681.91;4974095;28;45739;-71